Time;durP1;ratioP1;P1;durP2;ratioP2;P2;SDS_P1;SDS_P2;PMS_P1;PMS_P2;Temp;Humidity;BMP_temperature;BMP_pressure;BME280_temperature;BME280_humidity;BME280_pressure;Samples;Min_cycle;Max_cycle;Signal;HPM_P1;HPM_P2
2021/09/13 00:00:04;;;;;;;5.88;4.55;;;11.90;99.90;;;;;;4953212;28;20035;-69
2021/09/13 00:02:30;;;;;;;6.15;5.22;;;11.90;99.90;;;;;;4960504;28;20118;-69
2021/09/13 00:04:56;;;;;;;6.72;6.00;;;11.80;99.90;;;;;;4959190;28;20098;-69
2021/09/13 00:07:21;;;;;;;6.53;4.93;;;11.80;99.90;;;;;;4987333;28;20070;-69
2021/09/13 00:09:47;;;;;;;6.30;4.35;;;11.80;99.90;;;;;;4972528;28;20105;-69
2021/09/13 00:12:12;;;;;;;7.47;4.60;;;11.80;99.90;;;;;;4964328;28;20126;-69
2021/09/13 00:14:38;;;;;;;13.18;5.35;;;11.80;99.90;;;;;;4952509;28;20118;-70
2021/09/13 00:17:04;;;;;;;7.50;5.72;;;11.70;99.90;;;;;;4953060;28;20041;-69
2021/09/13 00:19:29;;;;;;;8.05;5.50;;;11.70;99.90;;;;;;4964257;28;20523;-70
2021/09/13 00:21:55;;;;;;;5.55;4.93;;;11.70;99.90;;;;;;4968915;28;20031;-69
2021/09/13 00:24:20;;;;;;;8.35;4.80;;;11.60;99.90;;;;;;4952939;29;20378;-69
2021/09/13 00:26:46;;;;;;;9.45;5.68;;;11.60;99.90;;;;;;4953051;28;20035;-69
2021/09/13 00:29:11;;;;;;;6.18;4.95;;;11.60;99.90;;;;;;4952943;28;20544;-69
2021/09/13 00:31:37;;;;;;;13.13;5.88;;;11.60;99.90;;;;;;4950966;29;20586;-69
2021/09/13 00:34:03;;;;;;;8.80;6.32;;;11.60;99.90;;;;;;4953223;28;20027;-69
2021/09/13 00:36:28;;;;;;;8.48;7.55;;;11.60;99.90;;;;;;4955292;28;20058;-69
2021/09/13 00:38:54;;;;;;;8.18;6.60;;;11.60;99.90;;;;;;4952645;28;20058;-69
2021/09/13 00:41:20;;;;;;;10.95;6.78;;;11.60;99.90;;;;;;4963910;28;20081;-69
2021/09/13 00:43:45;;;;;;;11.45;8.07;;;11.50;99.90;;;;;;4954758;28;20031;-69
2021/09/13 00:46:11;;;;;;;10.43;8.57;;;11.50;99.90;;;;;;4964481;28;20026;-69
2021/09/13 00:48:36;;;;;;;9.85;8.50;;;11.50;99.90;;;;;;4968127;28;20035;-70
2021/09/13 00:51:02;;;;;;;12.77;9.95;;;11.50;99.90;;;;;;4956753;29;20028;-69
2021/09/13 00:53:31;;;;;;;13.15;10.13;;;11.50;99.90;;;;;;4956071;28;20386;-69
2021/09/13 00:55:57;;;;;;;11.77;9.20;;;11.50;99.90;;;;;;4964973;28;20031;-69
2021/09/13 00:58:26;;;;;;;16.73;10.50;;;11.50;99.90;;;;;;4973344;28;20031;-69
2021/09/13 01:00:51;;;;;;;18.00;10.20;;;11.50;99.90;;;;;;4956150;29;20092;-69
2021/09/13 01:03:17;;;;;;;13.52;11.02;;;11.50;99.90;;;;;;4955950;28;20044;-69
2021/09/13 01:05:43;;;;;;;13.63;10.23;;;11.40;99.90;;;;;;4956152;28;20363;-69
2021/09/13 01:08:08;;;;;;;12.82;9.05;;;11.40;99.90;;;;;;4956399;29;20038;-69
2021/09/13 01:10:34;;;;;;;11.32;9.43;;;11.40;99.90;;;;;;4955724;28;20114;-69
2021/09/13 01:12:59;;;;;;;11.15;9.15;;;11.30;99.90;;;;;;4966202;28;20077;-69
2021/09/13 01:15:25;;;;;;;8.90;4.35;;;11.30;99.90;;;;;;4973410;28;20030;-69
2021/09/13 01:17:50;;;;;;;1.95;1.25;;;11.30;99.90;;;;;;4954643;29;20086;-69
2021/09/13 01:20:16;;;;;;;4.85;2.70;;;11.20;99.90;;;;;;4955617;28;20033;-69
2021/09/13 01:22:45;;;;;;;8.52;5.65;;;11.10;99.90;;;;;;4959499;28;20019;-69
2021/09/13 01:25:11;;;;;;;19.58;9.65;;;11.10;99.90;;;;;;4975401;28;20407;-69
2021/09/13 01:27:36;;;;;;;11.52;8.95;;;11.10;99.90;;;;;;4963678;28;20031;-69
2021/09/13 01:30:06;;;;;;;13.88;9.20;;;11.10;99.90;;;;;;4955663;28;20086;-69
2021/09/13 01:32:32;;;;;;;17.17;9.07;;;11.10;99.90;;;;;;4955457;29;20564;-69
2021/09/13 01:34:58;;;;;;;13.63;8.38;;;11.10;99.90;;;;;;4955681;28;20106;-69
2021/09/13 01:37:24;;;;;;;17.73;8.98;;;11.10;99.90;;;;;;4955158;28;20110;-69
2021/09/13 01:39:49;;;;;;;15.77;9.65;;;11.10;99.90;;;;;;4955482;28;20434;-69
2021/09/13 01:42:15;;;;;;;16.73;10.63;;;11.10;99.90;;;;;;4956561;28;20027;-69
2021/09/13 01:44:41;;;;;;;16.42;9.60;;;11.10;99.90;;;;;;4974680;28;20027;-70
2021/09/13 01:47:06;;;;;;;11.65;8.77;;;11.10;99.90;;;;;;4967175;28;20378;-69
2021/09/13 01:49:32;;;;;;;13.50;10.52;;;11.10;99.90;;;;;;4955152;28;20386;-69
2021/09/13 01:51:58;;;;;;;11.63;10.02;;;11.10;99.90;;;;;;4955274;28;20031;-69
2021/09/13 01:54:23;;;;;;;8.35;7.10;;;11.10;99.90;;;;;;4955520;28;20041;-69
2021/09/13 01:56:49;;;;;;;11.25;9.40;;;11.10;99.90;;;;;;4955092;28;20027;-69
2021/09/13 01:59:14;;;;;;;28.75;10.75;;;11.10;99.90;;;;;;4954721;28;20082;-69
2021/09/13 02:01:40;;;;;;;17.92;10.73;;;11.10;99.90;;;;;;4954496;28;20055;-70
2021/09/13 02:04:06;;;;;;;17.58;11.02;;;11.10;99.90;;;;;;4955226;28;20015;-70
2021/09/13 02:06:32;;;;;;;15.65;11.40;;;11.10;99.90;;;;;;4954778;29;20482;-69
2021/09/13 02:09:00;;;;;;;17.50;11.07;;;11.10;99.90;;;;;;4955259;28;20031;-70
2021/09/13 02:11:26;;;;;;;12.77;10.75;;;11.10;99.90;;;;;;4954866;28;20062;-70
2021/09/13 02:13:51;;;;;;;12.35;9.93;;;11.10;99.90;;;;;;4954882;29;20031;-69
2021/09/13 02:16:16;;;;;;;11.93;9.07;;;11.10;99.90;;;;;;4954704;28;20039;-70
2021/09/13 02:18:42;;;;;;;10.80;8.52;;;11.10;99.90;;;;;;4954817;28;20031;-70
2021/09/13 02:21:08;;;;;;;24.75;10.55;;;11.10;99.90;;;;;;4955108;29;20019;-70
2021/09/13 02:23:33;;;;;;;33.03;10.35;;;11.00;99.90;;;;;;4954603;29;20042;-70
2021/09/13 02:25:59;;;;;;;38.47;11.18;;;11.00;99.90;;;;;;4954989;28;20025;-70
2021/09/13 02:28:24;;;;;;;37.75;11.40;;;11.00;99.90;;;;;;4954137;28;20031;-70
2021/09/13 02:30:50;;;;;;;53.17;11.35;;;11.00;99.90;;;;;;4953496;29;20521;-70
2021/09/13 02:33:17;;;;;;;34.50;11.32;;;11.00;99.90;;;;;;4955466;28;20031;-70
2021/09/13 02:35:43;;;;;;;15.68;9.48;;;11.00;99.90;;;;;;4955126;29;20086;-70
2021/09/13 02:38:09;;;;;;;11.15;8.35;;;11.00;99.90;;;;;;4954496;29;20139;-70
2021/09/13 02:40:35;;;;;;;14.98;7.82;;;11.00;99.90;;;;;;4954133;28;20046;-70
2021/09/13 02:43:01;;;;;;;22.52;8.77;;;11.00;99.90;;;;;;4954335;28;20408;-70
2021/09/13 02:45:26;;;;;;;11.55;7.05;;;10.90;99.90;;;;;;4953968;28;20086;-69
2021/09/13 02:47:52;;;;;;;33.63;7.25;;;10.80;99.90;;;;;;4954774;29;20053;-70
2021/09/13 02:50:17;;;;;;;14.43;6.47;;;10.70;99.90;;;;;;4953962;29;20422;-70
2021/09/13 02:52:43;;;;;;;11.30;5.80;;;10.70;99.90;;;;;;4954460;28;20059;-70
2021/09/13 02:55:09;;;;;;;11.15;7.25;;;10.60;99.90;;;;;;4953021;28;20110;-70
2021/09/13 02:57:35;;;;;;;7.82;6.03;;;10.60;99.90;;;;;;4953863;28;20469;-70
2021/09/13 03:00:00;;;;;;;6.38;4.90;;;10.50;99.90;;;;;;4954231;28;20086;-70
2021/09/13 03:02:26;;;;;;;6.82;5.05;;;10.50;99.90;;;;;;4953840;28;20118;-70
2021/09/13 03:04:51;;;;;;;9.75;6.55;;;10.50;99.90;;;;;;4953162;29;20024;-70
2021/09/13 03:07:17;;;;;;;31.30;7.70;;;10.40;99.90;;;;;;4953745;28;20440;-70
2021/09/13 03:09:43;;;;;;;38.00;8.77;;;10.50;99.90;;;;;;4954273;28;20034;-70
2021/09/13 03:12:09;;;;;;;23.95;8.30;;;10.40;99.90;;;;;;4953722;28;20470;-70
2021/09/13 03:14:35;;;;;;;15.93;8.10;;;10.50;99.90;;;;;;4953576;28;20042;-70
2021/09/13 03:17:01;;;;;;;16.92;8.68;;;10.40;99.90;;;;;;4953859;28;20482;-70
2021/09/13 03:19:27;;;;;;;28.48;9.15;;;10.40;99.90;;;;;;4953444;28;20042;-70
2021/09/13 03:21:53;;;;;;;17.98;9.45;;;10.50;99.90;;;;;;4954126;28;20042;-70
2021/09/13 03:24:18;;;;;;;37.63;10.43;;;10.50;99.90;;;;;;4969190;28;20018;-70
2021/09/13 03:26:44;;;;;;;60.63;11.32;;;10.50;99.90;;;;;;4968483;28;20015;-70
2021/09/13 03:29:10;;;;;;;31.40;10.25;;;10.40;99.90;;;;;;4953680;29;20034;-70
2021/09/13 03:31:35;;;;;;;65.75;11.95;;;10.50;99.90;;;;;;4964191;28;20041;-70
2021/09/13 03:34:01;;;;;;;47.88;11.27;;;10.50;99.90;;;;;;4971529;28;20031;-69
2021/09/13 03:36:27;;;;;;;46.47;12.25;;;10.50;99.90;;;;;;4953427;29;20048;-70
2021/09/13 03:38:52;;;;;;;40.03;11.00;;;10.50;99.90;;;;;;4953496;28;20067;-70
2021/09/13 03:41:18;;;;;;;34.90;11.07;;;10.50;99.90;;;;;;4951961;28;20058;-70
2021/09/13 03:43:44;;;;;;;23.10;11.05;;;10.50;99.90;;;;;;4953661;29;20426;-70
2021/09/13 03:46:09;;;;;;;26.00;11.63;;;10.50;99.90;;;;;;4958752;28;20320;-70
2021/09/13 03:48:35;;;;;;;21.40;10.15;;;10.50;99.90;;;;;;4972544;28;20031;-70
2021/09/13 03:51:00;;;;;;;24.30;10.73;;;10.50;99.90;;;;;;4954904;28;20070;-70
2021/09/13 03:53:26;;;;;;;16.65;9.77;;;10.50;99.90;;;;;;4953269;28;20032;-70
2021/09/13 03:55:52;;;;;;;13.68;8.68;;;10.50;99.90;;;;;;4953508;28;20039;-70
2021/09/13 03:58:17;;;;;;;15.20;9.13;;;10.50;99.90;;;;;;4953073;29;20032;-70
2021/09/13 04:00:44;;;;;;;22.27;9.45;;;10.50;99.90;;;;;;4953285;28;20036;-70
2021/09/13 04:03:17;;;;;;;17.40;9.27;;;10.50;99.90;;;;;;4953398;28;20031;-70
2021/09/13 04:05:44;;;;;;;23.13;10.40;;;10.60;99.90;;;;;;4953772;28;20023;-70
2021/09/13 04:08:30;;;;;;;15.23;9.48;;;10.60;99.90;;;;;;4967194;28;20082;-70
2021/09/13 04:13:24;;;;;;;14.23;7.68;;;10.60;99.90;;;;;;4953141;28;20035;-70
2021/09/13 04:15:50;;;;;;;24.80;9.45;;;10.60;99.90;;;;;;4953437;28;20058;-70
2021/09/13 04:18:16;;;;;;;70.75;12.85;;;10.60;99.90;;;;;;4952676;28;20067;-70
2021/09/13 04:20:41;;;;;;;40.10;11.57;;;10.60;99.90;;;;;;4953277;28;20034;-70
2021/09/13 04:23:07;;;;;;;128.52;16.00;;;10.60;99.90;;;;;;4953626;28;20024;-70
2021/09/13 04:25:32;;;;;;;84.50;12.23;;;10.60;99.90;;;;;;4956703;28;20434;-70
2021/09/13 04:27:58;;;;;;;69.40;10.13;;;10.60;99.90;;;;;;4957071;28;20402;-70
2021/09/13 04:30:25;;;;;;;66.88;9.70;;;10.60;99.90;;;;;;4967175;28;20034;-70
2021/09/13 04:32:51;;;;;;;31.42;8.10;;;10.60;99.90;;;;;;4957168;29;20025;-70
2021/09/13 04:35:17;;;;;;;20.85;9.68;;;10.50;99.90;;;;;;4956427;28;20027;-70
2021/09/13 04:37:43;;;;;;;49.63;11.63;;;10.50;99.90;;;;;;4956552;29;20401;-70
2021/09/13 04:40:08;;;;;;;58.08;13.25;;;10.50;99.90;;;;;;4956580;28;20461;-70
2021/09/13 04:42:34;;;;;;;50.58;11.68;;;10.50;99.90;;;;;;4956512;29;20027;-70
2021/09/13 04:44:59;;;;;;;24.42;11.23;;;10.50;99.90;;;;;;4956568;28;20450;-70
2021/09/13 04:47:25;;;;;;;16.45;10.80;;;10.50;99.90;;;;;;4956170;28;20023;-70
2021/09/13 04:49:50;;;;;;;17.42;12.02;;;10.40;99.90;;;;;;4956673;29;20030;-70
2021/09/13 04:52:16;;;;;;;19.13;10.85;;;10.50;99.90;;;;;;4955997;28;20031;-70
2021/09/13 04:54:41;;;;;;;22.58;10.70;;;10.50;99.90;;;;;;4956374;28;20023;-70
2021/09/13 04:57:07;;;;;;;22.92;11.75;;;10.40;99.90;;;;;;4956249;28;20031;-70
2021/09/13 04:59:32;;;;;;;23.23;10.85;;;10.50;99.90;;;;;;4956102;28;20064;-70
2021/09/13 05:01:58;;;;;;;27.13;11.45;;;10.40;99.90;;;;;;4956029;28;20035;-70
2021/09/13 05:04:23;;;;;;;25.90;11.00;;;10.40;99.90;;;;;;4955973;28;20051;-70
2021/09/13 05:06:49;;;;;;;23.90;11.80;;;10.40;99.90;;;;;;4956226;29;20489;-70
2021/09/13 05:09:14;;;;;;;26.33;11.50;;;10.40;99.90;;;;;;4955756;28;20401;-70
2021/09/13 05:11:42;;;;;;;19.70;11.52;;;10.40;99.90;;;;;;4955921;28;20035;-70
2021/09/13 05:14:08;;;;;;;34.75;11.52;;;10.40;99.90;;;;;;4956125;28;20023;-70
2021/09/13 05:16:34;;;;;;;23.52;10.10;;;10.40;99.90;;;;;;4955894;29;20038;-70
2021/09/13 05:18:59;;;;;;;20.23;10.25;;;10.40;99.90;;;;;;4955984;28;20035;-70
2021/09/13 05:21:26;;;;;;;20.65;10.38;;;10.40;99.90;;;;;;4955610;29;20054;-70
2021/09/13 05:23:51;;;;;;;31.95;12.07;;;10.40;99.90;;;;;;4956054;29;20035;-70
2021/09/13 05:26:17;;;;;;;34.35;12.30;;;10.40;99.90;;;;;;4955355;28;20023;-70
2021/09/13 05:28:42;;;;;;;22.88;13.15;;;10.40;99.90;;;;;;4965564;28;20061;-70
2021/09/13 05:31:08;;;;;;;18.13;11.77;;;10.40;99.90;;;;;;4970943;28;20378;-70
2021/09/13 05:33:33;;;;;;;24.23;12.10;;;10.40;99.90;;;;;;4955489;29;20047;-70
2021/09/13 05:35:59;;;;;;;20.48;11.98;;;10.40;99.90;;;;;;4955609;28;20035;-70
2021/09/13 05:38:24;;;;;;;17.27;9.63;;;10.40;99.90;;;;;;4955086;28;20155;-70
2021/09/13 05:40:51;;;;;;;16.73;10.07;;;10.40;99.90;;;;;;4955744;29;20027;-70
2021/09/13 05:43:17;;;;;;;18.73;10.43;;;10.50;99.90;;;;;;4955211;28;20039;-70
2021/09/13 05:45:42;;;;;;;14.40;8.55;;;10.50;99.90;;;;;;4958979;28;20023;-71
2021/09/13 05:48:08;;;;;;;14.18;9.23;;;10.50;99.90;;;;;;4971797;28;20110;-70
2021/09/13 05:50:33;;;;;;;18.30;9.05;;;10.50;99.90;;;;;;4955148;29;20027;-70
2021/09/13 05:52:59;;;;;;;13.43;8.30;;;10.50;99.90;;;;;;4955465;28;20390;-71
2021/09/13 05:55:25;;;;;;;14.15;9.80;;;10.60;99.90;;;;;;4955368;28;20070;-70
2021/09/13 05:57:51;;;;;;;13.30;9.35;;;10.60;99.90;;;;;;4955360;28;20031;-70
2021/09/13 06:00:17;;;;;;;19.95;10.45;;;10.60;99.90;;;;;;4954756;28;20043;-71
2021/09/13 06:02:42;;;;;;;15.65;9.48;;;10.60;99.90;;;;;;4955218;28;20034;-70
2021/09/13 06:05:09;;;;;;;16.25;9.85;;;10.60;99.90;;;;;;4955493;29;20027;-70
2021/09/13 06:07:34;;;;;;;15.00;9.27;;;10.70;99.90;;;;;;4954737;28;20027;-70
2021/09/13 06:10:00;;;;;;;13.10;8.95;;;10.70;99.90;;;;;;4955340;28;20520;-70
2021/09/13 06:12:25;;;;;;;14.73;8.55;;;10.80;99.90;;;;;;4954911;29;20386;-70
2021/09/13 06:14:51;;;;;;;10.68;7.55;;;10.80;99.90;;;;;;4954827;28;20122;-71
2021/09/13 06:17:17;;;;;;;14.45;7.75;;;10.90;99.90;;;;;;4954611;29;20086;-70
2021/09/13 06:19:43;;;;;;;15.02;8.73;;;10.90;99.90;;;;;;4954720;28;20034;-70
2021/09/13 06:22:08;;;;;;;11.43;8.15;;;11.00;99.90;;;;;;4955412;29;20035;-70
2021/09/13 06:24:35;;;;;;;13.02;9.10;;;11.00;99.90;;;;;;4954433;28;20023;-71
2021/09/13 06:27:01;;;;;;;12.50;9.43;;;11.10;99.90;;;;;;4962499;28;20019;-71
2021/09/13 06:29:26;;;;;;;12.20;9.50;;;11.10;99.90;;;;;;4966350;28;20077;-71
2021/09/13 06:31:52;;;;;;;12.02;9.05;;;11.20;99.90;;;;;;4954840;28;20039;-71
2021/09/13 06:34:18;;;;;;;10.52;7.80;;;11.30;99.90;;;;;;4954634;29;20063;-71
2021/09/13 06:36:45;;;;;;;11.25;8.52;;;11.40;99.90;;;;;;4954494;28;20050;-70
2021/09/13 06:39:10;;;;;;;10.73;8.77;;;11.40;99.90;;;;;;4954474;28;20102;-71
2021/09/13 06:41:37;;;;;;;10.02;8.40;;;11.50;99.90;;;;;;4954162;28;20241;-71
2021/09/13 06:44:03;;;;;;;13.98;9.57;;;11.60;99.90;;;;;;4962873;28;20023;-71
2021/09/13 06:46:42;;;;;;;12.55;8.95;;;11.70;99.90;;;;;;4966788;28;20081;-71
2021/09/13 06:49:10;;;;;;;16.67;9.48;;;11.80;99.90;;;;;;4954569;29;20034;-71
2021/09/13 06:51:37;;;;;;;18.83;10.90;;;11.90;99.90;;;;;;4954121;28;20057;-70
2021/09/13 06:54:02;;;;;;;15.27;10.07;;;12.00;99.90;;;;;;4954137;28;20031;-71
2021/09/13 06:56:28;;;;;;;19.17;11.25;;;12.20;99.90;;;;;;4953802;28;20046;-71
2021/09/13 06:58:54;;;;;;;20.48;11.95;;;12.30;99.90;;;;;;4954036;28;20031;-71
2021/09/13 07:01:22;;;;;;;22.48;13.55;;;12.40;99.90;;;;;;4953655;28;20075;-71
2021/09/13 07:03:49;;;;;;;17.65;11.20;;;12.60;99.90;;;;;;4957519;28;20053;-71
2021/09/13 07:06:15;;;;;;;17.58;11.23;;;12.60;99.90;;;;;;4973147;28;20031;-71
2021/09/13 07:08:40;;;;;;;18.70;12.07;;;12.80;99.90;;;;;;4954835;28;20095;-71
2021/09/13 07:11:06;;;;;;;20.00;13.00;;;13.00;99.90;;;;;;4954027;28;20027;-71
2021/09/13 07:13:32;;;;;;;17.02;11.48;;;13.10;99.90;;;;;;4953909;28;20059;-71
2021/09/13 07:15:58;;;;;;;20.45;12.90;;;13.30;99.90;;;;;;4954084;29;20034;-71
2021/09/13 07:18:24;;;;;;;21.23;13.50;;;13.40;99.90;;;;;;4953356;28;20062;-71
2021/09/13 07:20:49;;;;;;;23.75;14.00;;;13.50;99.90;;;;;;4954035;29;20015;-70
2021/09/13 07:23:15;;;;;;;27.40;15.23;;;13.70;99.90;;;;;;4953453;29;20031;-71
2021/09/13 07:25:41;;;;;;;25.23;16.52;;;13.80;99.90;;;;;;4961997;28;20390;-70
2021/09/13 07:28:06;;;;;;;28.70;15.90;;;14.00;99.90;;;;;;4965764;28;20385;-71
2021/09/13 07:30:32;;;;;;;26.63;15.05;;;14.10;99.90;;;;;;4953424;29;20023;-70
2021/09/13 07:32:58;;;;;;;21.80;13.40;;;14.30;99.90;;;;;;4953648;29;20038;-71
2021/09/13 07:35:23;;;;;;;21.38;13.48;;;14.30;99.90;;;;;;4953622;28;20042;-71
2021/09/13 07:37:49;;;;;;;16.85;11.38;;;14.40;99.90;;;;;;4953412;28;20044;-70
2021/09/13 07:40:14;;;;;;;20.48;12.65;;;14.60;99.90;;;;;;4952811;28;20078;-71
2021/09/13 07:42:41;;;;;;;15.77;10.40;;;14.80;99.90;;;;;;4953491;28;20090;-70
2021/09/13 07:45:08;;;;;;;17.80;10.23;;;14.90;99.90;;;;;;4955798;28;20029;-71
2021/09/13 07:47:35;;;;;;;13.05;8.40;;;15.00;99.90;;;;;;4972592;28;20045;-71
2021/09/13 07:50:01;;;;;;;15.20;9.68;;;15.10;99.90;;;;;;4967291;28;20031;-71
2021/09/13 07:52:27;;;;;;;13.65;8.77;;;15.30;99.90;;;;;;4953135;28;20047;-71
2021/09/13 07:54:52;;;;;;;14.23;9.52;;;15.40;99.90;;;;;;4953311;28;20055;-71
2021/09/13 07:57:18;;;;;;;17.98;9.73;;;15.50;99.90;;;;;;4952574;28;20031;-71
2021/09/13 07:59:43;;;;;;;15.98;9.30;;;15.60;99.90;;;;;;4951652;29;20027;-71
2021/09/13 08:02:10;;;;;;;14.52;9.80;;;15.70;99.90;;;;;;4953026;28;20106;-71
2021/09/13 08:04:35;;;;;;;16.10;10.65;;;15.70;99.90;;;;;;4953012;28;20042;-70
2021/09/13 08:07:01;;;;;;;14.07;10.50;;;15.90;99.90;;;;;;4953240;29;20027;-71
2021/09/13 08:09:27;;;;;;;17.50;10.82;;;16.10;99.90;;;;;;4952635;28;20027;-71
2021/09/13 08:11:52;;;;;;;14.82;10.82;;;16.10;99.90;;;;;;4953281;28;20019;-70
2021/09/13 08:14:18;;;;;;;15.00;10.55;;;16.30;99.90;;;;;;4953190;28;20378;-70
2021/09/13 08:16:44;;;;;;;14.18;9.90;;;16.40;99.90;;;;;;4952987;29;20031;-70
2021/09/13 08:19:10;;;;;;;11.07;8.80;;;16.50;99.90;;;;;;4960363;28;20031;-70
2021/09/13 08:21:39;;;;;;;12.18;9.18;;;16.70;99.90;;;;;;4969068;28;20118;-71
2021/09/13 08:24:05;;;;;;;14.57;9.98;;;16.80;99.90;;;;;;4959328;28;20038;-71
2021/09/13 08:26:31;;;;;;;12.75;8.07;;;17.00;99.90;;;;;;4959316;28;20382;-70
2021/09/13 08:28:56;;;;;;;11.65;6.75;;;17.10;99.90;;;;;;4952971;28;20024;-70
2021/09/13 08:31:22;;;;;;;16.55;8.27;;;17.20;99.90;;;;;;4952539;29;20031;-71
2021/09/13 08:33:48;;;;;;;12.60;7.80;;;17.30;99.90;;;;;;4952795;28;20035;-70
2021/09/13 08:36:13;;;;;;;12.43;7.45;;;17.40;99.90;;;;;;4952636;28;20023;-70
2021/09/13 08:38:39;;;;;;;11.95;7.82;;;17.50;99.90;;;;;;4952926;29;20070;-70
2021/09/13 08:41:06;;;;;;;10.75;6.60;;;17.40;99.90;;;;;;4952776;29;20477;-70
2021/09/13 08:43:32;;;;;;;12.13;6.47;;;17.40;99.90;;;;;;4952503;28;20074;-70
2021/09/13 08:46:02;;;;;;;8.85;6.40;;;17.40;99.90;;;;;;4953158;29;20467;-70
2021/09/13 08:48:48;;;;;;;8.73;5.65;;;17.40;99.90;;;;;;4952267;28;20035;-70
2021/09/13 08:54:04;;;;;;;10.93;6.65;;;17.60;99.90;;;;;;4953038;28;20118;-70
2021/09/13 08:56:42;;;;;;;8.77;5.70;;;17.70;99.90;;;;;;4952590;28;20031;-70
2021/09/13 08:59:15;;;;;;;10.38;6.22;;;17.80;99.90;;;;;;4952750;28;20382;-70
2021/09/13 09:01:42;;;;;;;9.75;3.88;;;17.90;99.90;;;;;;4963591;28;20074;-70
2021/09/13 09:04:09;;;;;;;11.57;5.60;;;18.10;99.90;;;;;;4969896;28;20030;-70
2021/09/13 09:06:38;;;;;;;6.88;3.53;;;18.20;99.90;;;;;;4952273;28;20426;-70
2021/09/13 09:09:09;;;;;;;7.97;4.30;;;18.30;99.90;;;;;;4952947;28;20066;-70
2021/09/13 09:11:56;;;;;;;8.63;3.20;;;18.40;99.90;;;;;;4955648;28;20023;-70
2021/09/13 09:14:47;;;;;;;7.07;3.28;;;18.50;99.90;;;;;;4955770;29;20454;-70
2021/09/13 09:17:23;;;;;;;3.75;2.05;;;18.60;99.90;;;;;;4956037;28;20031;-70
2021/09/13 09:20:05;;;;;;;4.93;1.50;;;18.80;99.90;;;;;;4955677;28;20023;-70
2021/09/13 09:22:33;;;;;;;3.25;1.60;;;18.90;99.40;;;;;;4960186;28;20145;-69
2021/09/13 09:24:59;;;;;;;6.55;1.80;;;19.10;99.30;;;;;;4973286;28;20027;-70
2021/09/13 09:27:26;;;;;;;6.05;2.05;;;19.20;98.50;;;;;;4955273;28;20469;-70
2021/09/13 09:29:52;;;;;;;3.42;1.20;;;19.40;98.10;;;;;;4955742;28;20074;-70
2021/09/13 09:32:23;;;;;;;3.90;1.08;;;19.50;97.70;;;;;;4955041;28;20111;-70
2021/09/13 09:34:49;;;;;;;3.88;1.15;;;19.50;97.10;;;;;;4955531;29;20027;-70
2021/09/13 09:37:15;;;;;;;4.13;1.40;;;19.50;96.80;;;;;;4954887;28;20692;-70
2021/09/13 09:39:54;;;;;;;2.95;0.93;;;19.30;96.50;;;;;;4955612;28;20019;-70
2021/09/13 09:42:32;;;;;;;5.18;1.63;;;19.30;96.40;;;;;;4955504;29;20030;-70
2021/09/13 09:44:59;;;;;;;5.10;1.98;;;19.50;96.30;;;;;;4955492;28;20015;-70
2021/09/13 09:47:25;;;;;;;4.90;1.60;;;19.50;95.90;;;;;;4955603;28;20381;-70
2021/09/13 09:49:53;;;;;;;4.38;1.92;;;19.60;95.90;;;;;;4955252;28;20023;-70
2021/09/13 09:52:37;;;;;;;1.77;0.77;;;19.70;95.60;;;;;;4966989;28;20041;-69
2021/09/13 09:55:18;;;;;;;3.38;0.82;;;19.80;95.30;;;;;;4969529;28;20094;-70
2021/09/13 09:57:45;;;;;;;3.28;0.80;;;19.80;95.20;;;;;;4955365;29;20024;-70
2021/09/13 10:00:24;;;;;;;3.83;1.17;;;19.90;94.90;;;;;;4954922;28;20034;-69
2021/09/13 10:02:52;;;;;;;5.30;1.33;;;20.00;94.70;;;;;;4955154;28;20082;-69
2021/09/13 10:05:17;;;;;;;4.88;1.63;;;20.20;94.30;;;;;;4954777;28;20028;-70
2021/09/13 10:07:46;;;;;;;3.85;1.52;;;20.20;94.00;;;;;;4955278;29;20038;-69
2021/09/13 10:10:12;;;;;;;3.15;1.50;;;20.20;93.70;;;;;;4954928;28;20092;-70
2021/09/13 10:12:39;;;;;;;3.65;1.83;;;20.20;93.70;;;;;;4955053;28;20054;-69
2021/09/13 10:15:05;;;;;;;6.18;1.98;;;20.40;93.90;;;;;;4954926;28;20034;-69
2021/09/13 10:17:32;;;;;;;4.18;1.58;;;20.50;93.80;;;;;;4954408;28;20042;-70
2021/09/13 10:19:57;;;;;;;4.43;1.50;;;20.70;93.40;;;;;;4954960;28;20046;-70
2021/09/13 10:22:24;;;;;;;3.22;1.77;;;20.70;93.40;;;;;;4968352;28;20026;-69
2021/09/13 10:24:50;;;;;;;4.63;1.95;;;20.70;93.30;;;;;;4967454;28;20072;-70
2021/09/13 10:27:20;;;;;;;3.35;1.55;;;20.70;93.00;;;;;;4954075;28;20015;-69
2021/09/13 10:29:46;;;;;;;5.65;1.70;;;20.60;92.80;;;;;;4954903;28;20097;-69
2021/09/13 10:32:13;;;;;;;4.53;1.00;;;20.50;92.70;;;;;;4954720;28;20122;-69
2021/09/13 10:34:41;;;;;;;4.10;1.05;;;20.40;92.60;;;;;;4954499;28;20051;-70
2021/09/13 10:37:15;;;;;;;2.90;0.90;;;20.40;92.40;;;;;;4954168;28;20570;-70
2021/09/13 10:40:03;;;;;;;2.40;0.80;;;20.40;92.30;;;;;;4953210;29;20035;-70
2021/09/13 10:42:42;;;;;;;4.03;0.93;;;20.50;92.20;;;;;;4973540;28;20077;-69
2021/09/13 10:45:27;;;;;;;3.15;1.15;;;20.50;91.80;;;;;;4962898;28;20462;-69
2021/09/13 10:47:58;;;;;;;3.38;0.90;;;20.60;91.90;;;;;;4954478;28;20024;-69
2021/09/13 10:50:31;;;;;;;3.27;0.77;;;20.90;91.70;;;;;;4954076;28;20039;-69
2021/09/13 10:52:58;;;;;;;2.85;0.85;;;21.10;91.50;;;;;;4954120;28;20027;-69
2021/09/13 10:55:41;;;;;;;3.70;1.13;;;21.30;91.20;;;;;;4953760;28;20027;-69
2021/09/13 10:58:17;;;;;;;2.50;0.70;;;21.40;91.00;;;;;;4961619;28;20073;-69
2021/09/13 11:00:43;;;;;;;2.65;0.80;;;21.70;90.50;;;;;;4973541;28;20062;-69
2021/09/13 11:06:13;;;;;;;2.95;0.70;;;21.80;90.10;;;;;;4954278;28;20118;-69
2021/09/13 11:08:46;;;;;;;2.15;0.80;;;21.90;89.10;;;;;;4954024;28;20024;-69
2021/09/13 11:11:30;;;;;;;4.00;0.80;;;22.00;88.70;;;;;;4953614;28;20110;-70
2021/09/13 11:14:03;;;;;;;2.65;0.80;;;22.00;87.60;;;;;;4954253;28;20038;-69
2021/09/13 11:16:30;;;;;;;3.10;0.60;;;21.90;87.30;;;;;;4953673;28;20035;-69
2021/09/13 11:18:56;;;;;;;5.63;0.70;;;21.90;87.20;;;;;;4964133;28;20158;-69
2021/09/13 11:21:33;;;;;;;1.88;0.60;;;22.00;87.50;;;;;;4972889;28;20173;-70
2021/09/13 11:24:02;;;;;;;3.13;0.60;;;22.10;86.60;;;;;;4955893;28;20154;-69
2021/09/13 11:26:37;;;;;;;3.28;1.13;;;22.00;86.60;;;;;;4953428;28;20027;-70
2021/09/13 11:29:08;;;;;;;2.75;0.90;;;22.00;86.10;;;;;;4953955;28;20023;-69
2021/09/13 11:31:38;;;;;;;2.60;0.90;;;22.10;86.40;;;;;;4953572;28;20039;-69
2021/09/13 11:34:26;;;;;;;4.57;0.93;;;22.20;86.50;;;;;;4953347;28;20027;-70
2021/09/13 11:37:14;;;;;;;1.80;0.82;;;22.20;85.80;;;;;;4953176;28;20055;-70
2021/09/13 11:39:50;;;;;;;3.78;0.93;;;22.20;84.70;;;;;;4953699;28;20032;-70
2021/09/13 11:42:25;;;;;;;2.17;0.73;;;22.10;83.80;;;;;;4953111;28;20418;-69
2021/09/13 11:45:00;;;;;;;1.02;0.47;;;21.90;83.60;;;;;;4953739;29;20028;-69
2021/09/13 11:47:30;;;;;;;2.03;0.50;;;21.90;84.00;;;;;;4953334;28;20513;-70
2021/09/13 11:49:58;;;;;;;1.38;0.40;;;21.90;84.00;;;;;;4953561;28;20027;-69
2021/09/13 11:52:28;;;;;;;1.40;0.38;;;21.80;82.50;;;;;;4953104;29;20063;-69
2021/09/13 11:55:09;;;;;;;2.42;0.52;;;21.90;82.50;;;;;;4965058;28;20035;-69
2021/09/13 11:57:50;;;;;;;1.83;0.50;;;22.00;82.40;;;;;;4964739;28;20478;-70
2021/09/13 12:00:24;;;;;;;2.17;0.40;;;22.10;83.00;;;;;;4953161;28;20042;-69
2021/09/13 12:02:56;;;;;;;2.83;0.40;;;22.30;82.10;;;;;;4953529;28;20022;-69
2021/09/13 12:05:27;;;;;;;2.63;0.32;;;22.30;80.60;;;;;;4953038;28;20019;-69
2021/09/13 12:07:54;;;;;;;1.55;0.38;;;22.30;78.70;;;;;;4953475;28;20019;-70
2021/09/13 12:10:23;;;;;;;2.63;0.50;;;22.40;79.00;;;;;;4952993;28;20043;-70
2021/09/13 12:12:52;;;;;;;3.50;0.75;;;22.40;78.40;;;;;;4953313;28;20035;-69
2021/09/13 12:15:19;;;;;;;2.25;0.55;;;22.50;78.80;;;;;;4952825;29;20043;-69
2021/09/13 12:17:49;;;;;;;2.15;0.60;;;22.70;78.60;;;;;;4969615;28;20019;-69
2021/09/13 12:20:36;;;;;;;2.60;0.60;;;23.00;78.70;;;;;;4963880;28;20031;-69
2021/09/13 12:23:12;;;;;;;3.42;0.70;;;23.20;77.70;;;;;;4953294;29;20023;-69
2021/09/13 12:25:45;;;;;;;2.22;0.50;;;23.30;77.20;;;;;;4953178;28;20114;-69
2021/09/13 12:28:17;;;;;;;1.73;0.73;;;23.40;77.50;;;;;;4962221;28;20441;-69
2021/09/13 12:30:49;;;;;;;;;;;23.50;77.00;;;;;;4964920;28;20026;-69
2021/09/13 12:33:15;;;;;;;2.67;0.50;;;23.40;77.30;;;;;;4952904;28;19914;-69
2021/09/13 12:35:45;;;;;;;3.60;0.63;;;23.30;77.10;;;;;;4953101;28;20031;-69
2021/09/13 12:38:22;;;;;;;2.50;0.60;;;23.30;76.90;;;;;;4952804;28;20035;-69
2021/09/13 12:40:59;;;;;;;1.92;0.60;;;23.30;76.20;;;;;;4952839;28;20082;-69
2021/09/13 12:43:27;;;;;;;1.77;0.60;;;23.20;75.60;;;;;;4952773;28;20019;-69
2021/09/13 12:46:13;;;;;;;4.82;0.90;;;23.10;75.80;;;;;;4955893;28;20119;-69
2021/09/13 12:48:41;;;;;;;2.45;0.70;;;23.10;75.40;;;;;;4967534;28;20098;-69